createdAt,value
2022-11-29T00:01:23.452Z,8.70
2022-11-29T00:03:51.378Z,8.70
2022-11-29T00:06:21.223Z,8.70
2022-11-29T00:08:51.345Z,8.60
2022-11-29T00:11:39.543Z,8.60
2022-11-29T00:14:07.965Z,8.60
2022-11-29T00:16:35.331Z,8.60
2022-11-29T00:19:02.840Z,8.60
2022-11-29T00:21:29.880Z,8.50
2022-11-29T00:23:56.820Z,8.50
2022-11-29T00:26:23.963Z,8.50
2022-11-29T00:28:51.029Z,8.60
2022-11-29T00:31:23.827Z,8.60
2022-11-29T00:33:51.528Z,8.60
2022-11-29T00:36:19.651Z,8.50
2022-11-29T00:38:46.795Z,8.50
2022-11-29T00:41:13.775Z,8.50
2022-11-29T00:43:41.407Z,8.50
2022-11-29T00:46:10.113Z,8.50
2022-11-29T00:48:37.487Z,8.40
2022-11-29T00:51:05.674Z,8.40
2022-11-29T00:53:33.829Z,8.40
2022-11-29T00:56:00.918Z,8.40
2022-11-29T00:58:28.333Z,8.40
2022-11-29T01:00:55.319Z,8.40
2022-11-29T01:03:22.886Z,8.40
2022-11-29T01:05:50.501Z,8.40
2022-11-29T01:08:18.145Z,8.40
2022-11-29T01:10:45.553Z,8.40
2022-11-29T01:13:14.050Z,8.40
2022-11-29T01:15:42.185Z,8.40
2022-11-29T01:18:09.167Z,8.40
2022-11-29T01:20:36.052Z,8.40
2022-11-29T01:23:02.933Z,8.40
2022-11-29T01:25:30.020Z,8.40
2022-11-29T01:27:56.859Z,8.40
2022-11-29T01:30:23.849Z,8.40
2022-11-29T01:32:50.774Z,8.40
2022-11-29T01:35:17.859Z,8.40
2022-11-29T01:37:44.735Z,8.40
2022-11-29T01:40:12.122Z,8.40
2022-11-29T01:42:39.085Z,8.40
2022-11-29T01:45:26.184Z,8.40
2022-11-29T01:47:56.694Z,8.40
2022-11-29T01:50:23.963Z,8.40
2022-11-29T01:52:51.211Z,8.40
2022-11-29T01:55:18.884Z,8.40
2022-11-29T01:57:46.053Z,8.40
2022-11-29T02:00:16.515Z,8.40
2022-11-29T02:02:49.535Z,8.40
2022-11-29T02:05:18.656Z,8.40
2022-11-29T02:07:48.572Z,8.40
2022-11-29T02:10:16.557Z,8.40
2022-11-29T02:13:04.932Z,8.40
2022-11-29T02:15:58.001Z,8.40
2022-11-29T02:18:43.969Z,8.40
2022-11-29T02:21:16.866Z,8.40
2022-11-29T02:24:08.985Z,8.40
2022-11-29T02:27:05.097Z,8.40
2022-11-29T02:29:53.576Z,8.30
2022-11-29T02:32:39.311Z,8.30
2022-11-29T02:35:43.631Z,8.30
2022-11-29T02:38:51.082Z,8.30
2022-11-29T02:41:20.705Z,8.30
2022-11-29T02:43:53.572Z,8.30
2022-11-29T02:46:35.251Z,8.30
2022-11-29T02:49:17.541Z,8.30
2022-11-29T02:51:55.662Z,8.30
2022-11-29T02:54:33.345Z,8.30
2022-11-29T02:57:20.164Z,8.30
2022-11-29T03:00:05.785Z,8.30
2022-11-29T03:02:50.740Z,8.30
2022-11-29T03:05:35.547Z,8.30
2022-11-29T03:08:08.348Z,8.30
2022-11-29T03:10:56.957Z,8.30
2022-11-29T03:13:23.790Z,8.30
2022-11-29T03:16:28.411Z,8.30
2022-11-29T03:19:06.102Z,8.30
2022-11-29T03:21:40.836Z,8.20
2022-11-29T03:24:25.996Z,8.30
2022-11-29T03:27:04.182Z,8.20
2022-11-29T03:29:43.007Z,8.20
2022-11-29T03:32:14.531Z,8.20
2022-11-29T03:35:04.550Z,8.30
2022-11-29T03:37:50.434Z,8.30
2022-11-29T03:40:19.539Z,8.20
2022-11-29T03:43:00.593Z,8.20
2022-11-29T03:45:41.205Z,8.20
2022-11-29T03:48:11.823Z,8.20
2022-11-29T03:50:45.816Z,8.10
2022-11-29T03:53:28.548Z,8.10
2022-11-29T03:56:00.444Z,8.10
2022-11-29T03:58:34.936Z,8.10
2022-11-29T04:01:11.180Z,8.10
2022-11-29T04:04:11.797Z,8.10
2022-11-29T04:06:57.165Z,8.10
2022-11-29T04:09:35.901Z,8.00
2022-11-29T04:12:05.871Z,8.00
2022-11-29T04:14:59.065Z,8.00
2022-11-29T04:17:25.883Z,8.00
2022-11-29T04:20:05.105Z,8.00
2022-11-29T04:22:31.948Z,8.00
2022-11-29T04:25:40.224Z,8.00
2022-11-29T04:28:30.224Z,8.00
2022-11-29T04:31:29.827Z,7.90
2022-11-29T04:34:34.715Z,7.90
2022-11-29T04:37:13.487Z,7.90
2022-11-29T04:40:05.233Z,7.90
2022-11-29T04:42:45.131Z,7.90
2022-11-29T04:45:30.194Z,7.90
2022-11-29T04:48:12.898Z,7.90
2022-11-29T04:51:04.085Z,7.90
2022-11-29T04:53:58.391Z,7.90
2022-11-29T04:56:28.126Z,7.90
2022-11-29T04:58:59.964Z,7.80
2022-11-29T05:01:44.816Z,7.80
2022-11-29T05:04:29.307Z,7.90
2022-11-29T05:07:13.636Z,7.90
2022-11-29T05:10:06.164Z,7.80
2022-11-29T05:12:41.408Z,7.80
2022-11-29T05:15:45.745Z,7.80
2022-11-29T05:18:40.508Z,7.80
2022-11-29T05:21:17.854Z,7.80
2022-11-29T05:23:47.497Z,7.80
2022-11-29T05:26:38.379Z,7.70
2022-11-29T05:29:20.615Z,7.80
2022-11-29T05:32:06.743Z,7.70
2022-11-29T05:35:01.517Z,7.80
2022-11-29T05:37:43.340Z,7.80
2022-11-29T05:40:28.437Z,7.70
2022-11-29T05:43:16.702Z,7.70
2022-11-29T05:46:01.339Z,7.70
2022-11-29T05:48:49.157Z,7.70
2022-11-29T05:51:42.169Z,7.70
2022-11-29T05:54:34.264Z,7.70
2022-11-29T05:57:38.420Z,7.70
2022-11-29T06:00:06.926Z,7.70
2022-11-29T06:03:09.531Z,7.60
2022-11-29T06:05:46.823Z,7.60
2022-11-29T06:08:25.396Z,7.60
2022-11-29T06:11:11.251Z,7.60
2022-11-29T06:14:05.586Z,7.60
2022-11-29T06:17:09.648Z,7.60
2022-11-29T06:19:42.639Z,7.60
2022-11-29T06:22:20.929Z,7.60
2022-11-29T06:25:18.595Z,7.60
2022-11-29T06:28:09.709Z,7.60
2022-11-29T06:31:10.571Z,7.60
2022-11-29T06:33:43.289Z,7.60
2022-11-29T06:36:28.062Z,7.50
2022-11-29T06:38:55.162Z,7.50
2022-11-29T06:41:24.125Z,7.50
2022-11-29T06:43:51.641Z,7.50
2022-11-29T06:46:28.050Z,7.50
2022-11-29T06:49:14.121Z,7.50
2022-11-29T06:52:07.203Z,7.60
2022-11-29T06:55:09.161Z,7.60
2022-11-29T06:58:01.856Z,7.50
2022-11-29T07:00:48.523Z,7.50
2022-11-29T07:03:26.877Z,7.50
2022-11-29T07:05:54.081Z,7.50
2022-11-29T07:08:23.763Z,7.50
2022-11-29T07:10:54.002Z,7.50
2022-11-29T07:13:21.645Z,7.60
2022-11-29T07:16:25.202Z,7.60
2022-11-29T07:19:11.326Z,7.60
2022-11-29T07:21:38.161Z,7.70
2022-11-29T07:24:24.099Z,7.70
2022-11-29T07:26:59.841Z,7.70
2022-11-29T07:29:35.916Z,7.70
2022-11-29T07:32:25.589Z,7.70
2022-11-29T07:34:55.326Z,7.70
2022-11-29T07:37:31.440Z,7.70
2022-11-29T07:40:17.133Z,7.70
2022-11-29T07:43:08.607Z,7.70
2022-11-29T07:45:39.095Z,7.70
2022-11-29T07:48:06.971Z,7.60
2022-11-29T07:50:35.787Z,7.60
2022-11-29T07:53:03.195Z,7.60
2022-11-29T07:55:31.516Z,7.60
2022-11-29T07:57:58.431Z,7.60
2022-11-29T08:00:25.443Z,7.60
2022-11-29T08:02:52.617Z,7.70
2022-11-29T08:05:19.581Z,7.70
2022-11-29T08:07:47.826Z,7.70
2022-11-29T08:10:16.637Z,7.70
2022-11-29T08:12:45.650Z,7.70
2022-11-29T08:15:16.403Z,7.70
2022-11-29T08:17:43.818Z,7.70
2022-11-29T08:20:13.340Z,7.80
2022-11-29T08:22:41.439Z,7.80
2022-11-29T08:25:09.535Z,7.80
2022-11-29T08:27:37.831Z,7.80
2022-11-29T08:30:06.533Z,7.80
2022-11-29T08:32:34.554Z,7.80
2022-11-29T08:35:01.599Z,7.80
2022-11-29T08:37:28.611Z,7.80
2022-11-29T08:39:56.201Z,7.90
2022-11-29T08:42:23.037Z,7.90
2022-11-29T08:44:50.109Z,8.00
2022-11-29T08:47:35.437Z,8.00
2022-11-29T08:50:07.793Z,8.00
2022-11-29T08:52:56.590Z,8.10
2022-11-29T08:55:26.469Z,8.00
2022-11-29T08:57:55.060Z,8.10
2022-11-29T09:00:22.134Z,8.10
2022-11-29T09:02:49.214Z,8.10
2022-11-29T09:05:16.224Z,8.20
2022-11-29T09:07:43.401Z,8.20
2022-11-29T09:10:11.418Z,8.20
2022-11-29T09:12:40.230Z,8.20
2022-11-29T09:15:10.150Z,8.30
2022-11-29T09:17:37.549Z,8.30
2022-11-29T09:20:05.716Z,8.30
2022-11-29T09:22:32.736Z,8.40
2022-11-29T09:24:59.640Z,8.40
2022-11-29T09:27:26.595Z,8.50
2022-11-29T09:29:53.541Z,8.50
2022-11-29T09:32:20.746Z,8.50
2022-11-29T09:34:48.242Z,8.60
2022-11-29T09:37:15.409Z,8.60
2022-11-29T09:39:42.288Z,8.70
2022-11-29T09:42:36.678Z,8.70
2022-11-29T09:45:30.461Z,8.80
2022-11-29T09:48:07.012Z,8.90
2022-11-29T09:50:36.530Z,8.90
2022-11-29T09:53:54.019Z,9.00
2022-11-29T09:56:29.250Z,9.00
2022-11-29T09:59:05.374Z,9.10
2022-11-29T10:01:40.181Z,9.10
2022-11-29T10:04:16.966Z,9.20
2022-11-29T10:06:53.794Z,9.20
2022-11-29T10:09:30.875Z,9.30
2022-11-29T10:12:16.602Z,9.40
2022-11-29T10:15:04.668Z,9.40
2022-11-29T10:18:12.251Z,9.40
2022-11-29T10:20:48.635Z,9.40
2022-11-29T10:23:48.060Z,9.50
2022-11-29T10:26:15.125Z,9.50
2022-11-29T10:28:45.080Z,9.50
2022-11-29T10:31:21.520Z,9.60
2022-11-29T10:33:49.808Z,9.70
2022-11-29T10:36:25.274Z,9.70
2022-11-29T10:38:56.260Z,9.80
2022-11-29T10:41:23.383Z,9.90
2022-11-29T10:43:52.070Z,10.00
2022-11-29T10:46:36.011Z,10.10
2022-11-29T10:49:11.862Z,10.10
2022-11-29T10:51:39.129Z,10.10
2022-11-29T10:54:21.197Z,10.10
2022-11-29T10:56:48.638Z,10.10
2022-11-29T10:59:26.252Z,10.10
2022-11-29T11:01:53.740Z,10.20
2022-11-29T11:04:28.953Z,10.10
2022-11-29T11:07:04.977Z,10.10
2022-11-29T11:09:54.125Z,10.20
2022-11-29T11:12:25.791Z,10.20
2022-11-29T11:15:20.342Z,10.30
2022-11-29T11:18:06.236Z,10.40
2022-11-29T11:20:57.249Z,10.40
2022-11-29T11:23:36.381Z,10.40
2022-11-29T11:26:11.778Z,10.50
2022-11-29T11:29:01.225Z,10.50
2022-11-29T11:31:31.247Z,10.40
2022-11-29T11:34:24.922Z,10.40
2022-11-29T11:36:52.577Z,10.40
2022-11-29T11:39:21.967Z,10.40
2022-11-29T11:42:10.106Z,10.40
2022-11-29T11:44:49.612Z,10.40
2022-11-29T11:47:18.685Z,10.50
2022-11-29T11:49:54.435Z,10.40
2022-11-29T11:52:27.727Z,10.50
2022-11-29T11:55:01.237Z,10.40
2022-11-29T11:57:30.162Z,10.30
2022-11-29T12:00:06.403Z,10.30
2022-11-29T12:02:40.034Z,10.30
2022-11-29T12:05:13.842Z,10.30
2022-11-29T12:10:35.653Z,10.30
2022-11-29T12:13:04.226Z,10.20
2022-11-29T12:15:41.503Z,10.20
2022-11-29T12:18:12.445Z,10.20
2022-11-29T12:20:42.517Z,10.20
2022-11-29T12:23:12.149Z,10.10
2022-11-29T12:25:51.658Z,10.10
2022-11-29T12:28:20.990Z,10.10
2022-11-29T12:30:58.152Z,10.10
2022-11-29T12:33:36.969Z,10.10
2022-11-29T12:36:36.039Z,10.00
2022-11-29T12:39:15.068Z,10.00
2022-11-29T12:42:08.229Z,10.00
2022-11-29T12:44:38.218Z,10.00
2022-11-29T12:47:39.603Z,10.00
2022-11-29T12:50:29.101Z,9.90
2022-11-29T12:53:30.192Z,9.90
2022-11-29T12:56:14.614Z,9.80
2022-11-29T12:58:53.237Z,9.80
2022-11-29T13:01:28.996Z,9.80
2022-11-29T13:04:26.289Z,9.70
2022-11-29T13:07:04.471Z,9.70
2022-11-29T13:09:55.514Z,9.60
2022-11-29T13:12:46.210Z,9.60
2022-11-29T13:15:23.192Z,9.60
2022-11-29T13:18:11.371Z,9.50
2022-11-29T13:20:52.128Z,9.40
2022-11-29T13:23:45.548Z,9.40
2022-11-29T13:26:18.603Z,9.30
2022-11-29T13:28:48.917Z,9.40
2022-11-29T13:31:22.162Z,9.30
2022-11-29T13:34:04.300Z,9.30
2022-11-29T13:37:02.966Z,9.40
2022-11-29T13:39:42.214Z,9.40
2022-11-29T13:42:23.824Z,9.40
2022-11-29T13:45:15.605Z,9.40
2022-11-29T13:47:59.836Z,9.30
2022-11-29T13:50:40.419Z,9.30
2022-11-29T13:53:16.221Z,9.30
2022-11-29T13:56:01.199Z,9.20
2022-11-29T13:58:28.112Z,9.20
2022-11-29T14:00:59.481Z,9.20
2022-11-29T14:03:36.311Z,9.20
2022-11-29T14:06:10.038Z,9.20
2022-11-29T14:09:10.833Z,9.10
2022-11-29T14:11:42.501Z,9.20
2022-11-29T14:14:21.661Z,9.10
2022-11-29T14:16:57.922Z,9.20
2022-11-29T14:19:33.359Z,9.20
2022-11-29T14:22:06.868Z,9.20
2022-11-29T14:24:36.982Z,9.20
2022-11-29T14:27:06.932Z,9.10
2022-11-29T14:29:49.553Z,9.20
2022-11-29T14:32:44.410Z,9.10
2022-11-29T14:35:16.274Z,9.10
2022-11-29T14:37:52.205Z,9.10
2022-11-29T14:40:24.071Z,9.00
2022-11-29T14:42:52.881Z,9.00
2022-11-29T14:45:30.138Z,9.00
2022-11-29T14:47:58.035Z,9.00
2022-11-29T14:50:36.947Z,9.00
2022-11-29T14:53:06.714Z,9.00
2022-11-29T14:55:37.046Z,9.00
2022-11-29T14:58:15.872Z,9.00
2022-11-29T15:00:48.690Z,9.00
2022-11-29T15:03:28.871Z,9.00
2022-11-29T15:06:00.000Z,9.00
2022-11-29T15:08:26.870Z,8.90
2022-11-29T15:11:12.140Z,8.90
2022-11-29T15:13:54.637Z,8.90
2022-11-29T15:16:27.743Z,8.90
2022-11-29T15:19:41.583Z,8.80
2022-11-29T15:22:40.628Z,8.80
2022-11-29T15:25:13.599Z,8.80
2022-11-29T15:27:55.167Z,8.80
2022-11-29T15:30:30.027Z,8.80
2022-11-29T15:32:59.027Z,8.70
2022-11-29T15:35:25.942Z,8.70
2022-11-29T15:37:53.808Z,8.70
2022-11-29T15:40:31.415Z,8.70
2022-11-29T15:43:13.006Z,8.70
2022-11-29T15:45:40.515Z,8.70
2022-11-29T15:48:37.099Z,8.70
2022-11-29T15:51:22.265Z,8.60
2022-11-29T15:54:12.070Z,8.70
2022-11-29T15:56:43.011Z,8.60
2022-11-29T15:59:18.842Z,8.60
2022-11-29T16:01:49.985Z,8.60
2022-11-29T16:04:21.593Z,8.60
2022-11-29T16:06:49.555Z,8.60
2022-11-29T16:09:25.256Z,8.60
2022-11-29T16:11:52.393Z,8.60
2022-11-29T16:14:25.151Z,8.60
2022-11-29T16:16:54.512Z,8.60
2022-11-29T16:19:36.965Z,8.60
2022-11-29T16:22:12.688Z,8.50
2022-11-29T16:25:01.014Z,8.60
2022-11-29T16:27:32.093Z,8.50
2022-11-29T16:29:59.945Z,8.50
2022-11-29T16:32:26.772Z,8.50
2022-11-29T16:34:54.279Z,8.50
2022-11-29T16:37:26.922Z,8.60
2022-11-29T16:40:00.199Z,8.60
2022-11-29T16:42:32.645Z,8.60
2022-11-29T16:45:02.350Z,8.60
2022-11-29T16:47:32.185Z,8.60
2022-11-29T16:50:02.128Z,8.60
2022-11-29T16:52:31.385Z,8.60
2022-11-29T16:54:58.510Z,8.50
2022-11-29T16:57:27.436Z,8.60
2022-11-29T16:59:54.529Z,8.60
2022-11-29T17:02:21.531Z,8.60
2022-11-29T17:04:48.882Z,8.60
2022-11-29T17:07:28.876Z,8.60
2022-11-29T17:09:57.189Z,8.60
2022-11-29T17:12:24.295Z,8.60
2022-11-29T17:14:51.479Z,8.60
2022-11-29T17:17:19.177Z,8.60
2022-11-29T17:19:46.069Z,8.60
2022-11-29T17:22:14.435Z,8.60
2022-11-29T17:24:46.368Z,8.60
2022-11-29T17:27:15.454Z,8.60
2022-11-29T17:29:42.463Z,8.60
2022-11-29T17:32:09.536Z,8.60
2022-11-29T17:34:36.526Z,8.60
2022-11-29T17:37:03.498Z,8.60
2022-11-29T17:39:30.522Z,8.60
2022-11-29T17:41:57.533Z,8.70
2022-11-29T17:44:24.530Z,8.70
2022-11-29T17:46:51.562Z,8.70
2022-11-29T17:49:18.941Z,8.60
2022-11-29T17:51:53.607Z,8.60
2022-11-29T17:54:22.358Z,8.60
2022-11-29T17:56:50.025Z,8.60
2022-11-29T17:59:17.191Z,8.70
2022-11-29T18:01:46.936Z,8.70
2022-11-29T18:04:14.271Z,8.70
2022-11-29T18:06:41.493Z,8.70
2022-11-29T18:09:10.256Z,8.70
2022-11-29T18:11:48.495Z,8.70
2022-11-29T18:14:23.619Z,8.70
2022-11-29T18:16:51.401Z,8.70
2022-11-29T18:19:21.207Z,8.70
2022-11-29T18:21:49.730Z,8.70
2022-11-29T18:24:17.396Z,8.60
2022-11-29T18:26:44.763Z,8.70
2022-11-29T18:29:11.900Z,8.70
2022-11-29T18:31:41.932Z,8.60
2022-11-29T18:34:10.674Z,8.60
2022-11-29T18:36:44.255Z,8.60
2022-11-29T18:39:14.299Z,8.60
2022-11-29T18:41:44.160Z,8.60
2022-11-29T18:44:14.059Z,8.60
2022-11-29T18:46:43.568Z,8.60
2022-11-29T18:49:16.150Z,8.60
2022-11-29T18:51:44.993Z,8.60
2022-11-29T18:54:13.255Z,8.60
2022-11-29T18:56:40.571Z,8.60
2022-11-29T18:59:17.729Z,8.60
2022-11-29T19:01:47.051Z,8.60
2022-11-29T19:04:16.520Z,8.60
2022-11-29T19:06:44.046Z,8.60
2022-11-29T19:09:16.897Z,8.60
2022-11-29T19:11:43.946Z,8.60
2022-11-29T19:14:12.665Z,8.60
2022-11-29T19:16:42.405Z,8.60
2022-11-29T19:19:09.861Z,8.60
2022-11-29T19:21:37.875Z,8.60
2022-11-29T19:24:13.239Z,8.60
2022-11-29T19:26:41.168Z,8.60
2022-11-29T19:29:08.090Z,8.60
2022-11-29T19:31:34.996Z,8.60
2022-11-29T19:34:02.184Z,8.60
2022-11-29T19:36:31.217Z,8.60
2022-11-29T19:39:00.714Z,8.60
2022-11-29T19:41:33.265Z,8.60
2022-11-29T19:44:04.101Z,8.60
2022-11-29T19:46:36.547Z,8.60
2022-11-29T19:49:05.166Z,8.60
2022-11-29T19:51:33.870Z,8.60
2022-11-29T19:54:03.820Z,8.60
2022-11-29T19:56:31.551Z,8.50
2022-11-29T19:59:01.573Z,8.50
2022-11-29T20:01:39.737Z,8.50
2022-11-29T20:04:08.110Z,8.50
2022-11-29T20:06:35.397Z,8.50
2022-11-29T20:09:02.525Z,8.60
2022-11-29T20:11:29.649Z,8.50
2022-11-29T20:13:59.309Z,8.50
2022-11-29T20:16:27.581Z,8.50
2022-11-29T20:18:55.050Z,8.50
2022-11-29T20:21:24.924Z,8.50
2022-11-29T20:23:56.469Z,8.50
2022-11-29T20:26:24.188Z,8.50
2022-11-29T20:28:51.286Z,8.50
2022-11-29T20:31:22.600Z,8.50
2022-11-29T20:33:53.074Z,8.50
2022-11-29T20:36:38.765Z,8.50
2022-11-29T20:39:11.648Z,8.50
2022-11-29T20:41:45.016Z,8.50
2022-11-29T20:44:18.645Z,8.50
2022-11-29T20:46:45.715Z,8.50
2022-11-29T20:49:17.350Z,8.40
2022-11-29T20:51:56.128Z,8.40
2022-11-29T20:54:22.924Z,8.50
2022-11-29T20:56:49.767Z,8.40
2022-11-29T20:59:16.646Z,8.40
2022-11-29T21:01:43.965Z,8.40
2022-11-29T21:04:11.293Z,8.40
2022-11-29T21:06:39.966Z,8.40
2022-11-29T21:09:09.851Z,8.40
2022-11-29T21:11:37.138Z,8.40
2022-11-29T21:14:05.899Z,8.40
2022-11-29T21:16:33.072Z,8.40
2022-11-29T21:19:02.904Z,8.40
2022-11-29T21:21:44.696Z,8.40
2022-11-29T21:24:30.596Z,8.40
2022-11-29T21:26:57.637Z,8.40
2022-11-29T21:29:25.179Z,8.40
2022-11-29T21:31:54.193Z,8.40
2022-11-29T21:34:22.766Z,8.40
2022-11-29T21:36:58.109Z,8.40
2022-11-29T21:39:33.251Z,8.30
2022-11-29T21:42:00.248Z,8.40
2022-11-29T21:44:27.141Z,8.30
2022-11-29T21:46:54.062Z,8.40
2022-11-29T21:49:20.974Z,8.30
2022-11-29T21:51:47.813Z,8.40
2022-11-29T21:54:14.743Z,8.30
2022-11-29T21:56:41.704Z,8.40
2022-11-29T21:59:08.656Z,8.40
2022-11-29T22:01:35.601Z,8.30
2022-11-29T22:04:02.645Z,8.30
2022-11-29T22:06:30.279Z,8.30
2022-11-29T22:08:57.303Z,8.30
2022-11-29T22:11:36.234Z,8.30
2022-11-29T22:14:15.694Z,8.30
2022-11-29T22:16:54.988Z,8.30
2022-11-29T22:19:22.927Z,8.30
2022-11-29T22:21:53.802Z,8.30
2022-11-29T22:24:23.332Z,8.40
2022-11-29T22:26:50.959Z,8.40
2022-11-29T22:29:18.556Z,8.40
2022-11-29T22:31:47.634Z,8.40
2022-11-29T22:34:15.013Z,8.30
2022-11-29T22:36:42.371Z,8.30
2022-11-29T22:39:09.521Z,8.40
2022-11-29T22:41:37.803Z,8.30
2022-11-29T22:44:04.868Z,8.30
2022-11-29T22:46:32.277Z,8.30
2022-11-29T22:49:00.621Z,8.30
2022-11-29T22:51:32.832Z,8.30
2022-11-29T22:54:02.047Z,8.30
2022-11-29T22:56:31.956Z,8.30
2022-11-29T22:58:58.880Z,8.30
2022-11-29T23:01:28.403Z,8.30
2022-11-29T23:03:58.127Z,8.30
2022-11-29T23:06:36.408Z,8.30
2022-11-29T23:09:06.786Z,8.30
2022-11-29T23:11:34.066Z,8.30
2022-11-29T23:14:01.065Z,8.20
2022-11-29T23:16:29.979Z,8.20
2022-11-29T23:18:58.524Z,8.20
2022-11-29T23:21:29.508Z,8.20
2022-11-29T23:23:57.095Z,8.20
2022-11-29T23:26:37.531Z,8.30
2022-11-29T23:29:05.880Z,8.20
2022-11-29T23:31:33.893Z,8.20
2022-11-29T23:34:02.081Z,8.20
2022-11-29T23:36:29.282Z,8.20
2022-11-29T23:38:56.129Z,8.20
2022-11-29T23:41:23.073Z,8.20
2022-11-29T23:43:50.129Z,8.20
2022-11-29T23:46:21.105Z,8.20
2022-11-29T23:48:48.672Z,8.10
2022-11-29T23:51:16.693Z,8.10
2022-11-29T23:53:44.148Z,8.10
2022-11-29T23:56:14.476Z,8.00
2022-11-29T23:58:42.044Z,7.90
